sensor_id;sensor_type;location;lat;lon;timestamp;pressure;altitude;pressure_sealevel;temperature;humidity
40788;BME280;26497;52.494;7.546;2023-08-30T00:01:05;100196.19;;;18.61;71.28
40788;BME280;26497;52.494;7.546;2023-08-30T00:03:34;100193.16;;;18.48;71.39
40788;BME280;26497;52.494;7.546;2023-08-30T00:06:04;100188.97;;;18.42;71.52
40788;BME280;26497;52.494;7.546;2023-08-30T00:08:32;100184.69;;;18.38;71.40
40788;BME280;26497;52.494;7.546;2023-08-30T00:10:59;100186.16;;;18.23;71.52
40788;BME280;26497;52.494;7.546;2023-08-30T00:13:29;100187.06;;;18.22;71.74
40788;BME280;26497;52.494;7.546;2023-08-30T00:15:56;100187.16;;;18.21;71.57
40788;BME280;26497;52.494;7.546;2023-08-30T00:18:23;100191.72;;;18.17;71.50
40788;BME280;26497;52.494;7.546;2023-08-30T00:20:50;100190.31;;;18.08;71.69
40788;BME280;26497;52.494;7.546;2023-08-30T00:23:17;100196.50;;;18.09;71.81
40788;BME280;26497;52.494;7.546;2023-08-30T00:25:44;100192.31;;;18.02;71.99
40788;BME280;26497;52.494;7.546;2023-08-30T00:28:11;100189.75;;;17.98;72.48
40788;BME280;26497;52.494;7.546;2023-08-30T00:30:39;100187.19;;;17.95;72.75
40788;BME280;26497;52.494;7.546;2023-08-30T00:33:06;100189.88;;;17.95;72.76
40788;BME280;26497;52.494;7.546;2023-08-30T00:35:33;100189.75;;;17.98;72.87
40788;BME280;26497;52.494;7.546;2023-08-30T00:38:00;100192.66;;;17.92;73.08
40788;BME280;26497;52.494;7.546;2023-08-30T00:40:29;100192.66;;;17.92;73.17
40788;BME280;26497;52.494;7.546;2023-08-30T00:42:56;100193.47;;;17.94;72.91
40788;BME280;26497;52.494;7.546;2023-08-30T00:45:22;100181.13;;;17.92;72.63
40788;BME280;26497;52.494;7.546;2023-08-30T00:47:51;100171.94;;;17.77;72.62
40788;BME280;26497;52.494;7.546;2023-08-30T00:50:18;100176.84;;;17.64;72.93
40788;BME280;26497;52.494;7.546;2023-08-30T00:52:45;100178.75;;;17.60;72.98
40788;BME280;26497;52.494;7.546;2023-08-30T00:55:12;100175.91;;;17.65;72.56
40788;BME280;26497;52.494;7.546;2023-08-30T00:57:41;100170.88;;;17.57;72.29
40788;BME280;26497;52.494;7.546;2023-08-30T01:00:10;100174.47;;;17.56;72.03
40788;BME280;26497;52.494;7.546;2023-08-30T01:02:37;100172.88;;;17.50;72.19
40788;BME280;26497;52.494;7.546;2023-08-30T01:05:06;100171.72;;;17.34;72.54
40788;BME280;26497;52.494;7.546;2023-08-30T01:07:34;100171.94;;;17.28;72.65
40788;BME280;26497;52.494;7.546;2023-08-30T01:10:01;100172.22;;;17.20;72.69
40788;BME280;26497;52.494;7.546;2023-08-30T01:12:34;100168.63;;;17.21;72.75
40788;BME280;26497;52.494;7.546;2023-08-30T01:15:10;100165.34;;;17.14;72.61
40788;BME280;26497;52.494;7.546;2023-08-30T01:17:40;100162.06;;;17.06;72.84
40788;BME280;26497;52.494;7.546;2023-08-30T01:20:11;100164.84;;;17.03;72.93
40788;BME280;26497;52.494;7.546;2023-08-30T01:22:50;100165.81;;;17.00;73.06
40788;BME280;26497;52.494;7.546;2023-08-30T01:25:32;100162.50;;;16.92;73.09
40788;BME280;26497;52.494;7.546;2023-08-30T01:28:05;100152.16;;;16.83;73.17
40788;BME280;26497;52.494;7.546;2023-08-30T01:30:34;100157.72;;;16.76;73.29
40788;BME280;26497;52.494;7.546;2023-08-30T01:33:04;100160.53;;;16.72;73.33
40788;BME280;26497;52.494;7.546;2023-08-30T01:35:32;100160.66;;;16.69;73.37
40788;BME280;26497;52.494;7.546;2023-08-30T01:38:03;100160.53;;;16.72;73.39
40788;BME280;26497;52.494;7.546;2023-08-30T01:40:35;100165.03;;;16.70;73.36
40788;BME280;26497;52.494;7.546;2023-08-30T01:43:05;100158.50;;;16.80;72.81
40788;BME280;26497;52.494;7.546;2023-08-30T01:45:35;100153.88;;;16.85;72.72
40788;BME280;26497;52.494;7.546;2023-08-30T01:48:03;100159.25;;;16.84;72.40
40788;BME280;26497;52.494;7.546;2023-08-30T01:50:32;100160.56;;;16.70;72.32
40788;BME280;26497;52.494;7.546;2023-08-30T01:53:00;100161.06;;;16.56;72.81
40788;BME280;26497;52.494;7.546;2023-08-30T01:55:30;100161.13;;;16.55;72.99
40788;BME280;26497;52.494;7.546;2023-08-30T01:57:57;100166.28;;;16.59;73.00
40788;BME280;26497;52.494;7.546;2023-08-30T02:00:26;100159.97;;;16.62;73.12
40788;BME280;26497;52.494;7.546;2023-08-30T02:02:53;100161.34;;;16.74;73.05
40788;BME280;26497;52.494;7.546;2023-08-30T02:05:20;100155.13;;;16.75;73.49
40788;BME280;26497;52.494;7.546;2023-08-30T02:07:54;100152.38;;;16.76;73.91
40788;BME280;26497;52.494;7.546;2023-08-30T02:10:28;100160.97;;;16.85;73.69
40788;BME280;26497;52.494;7.546;2023-08-30T02:12:59;100155.53;;;16.88;73.53
40788;BME280;26497;52.494;7.546;2023-08-30T02:15:31;100155.34;;;16.94;73.17
40788;BME280;26497;52.494;7.546;2023-08-30T02:18:00;100153.06;;;16.83;73.11
40788;BME280;26497;52.494;7.546;2023-08-30T02:20:30;100150.53;;;16.78;72.89
40788;BME280;26497;52.494;7.546;2023-08-30T02:22:58;100147.22;;;16.72;73.03
40788;BME280;26497;52.494;7.546;2023-08-30T02:25:25;100151.63;;;16.73;73.23
40788;BME280;26497;52.494;7.546;2023-08-30T02:27:52;100146.34;;;16.71;72.91
40788;BME280;26497;52.494;7.546;2023-08-30T02:30:20;100156.44;;;16.61;72.96
40788;BME280;26497;52.494;7.546;2023-08-30T02:32:48;100159.25;;;16.57;73.12
40788;BME280;26497;52.494;7.546;2023-08-30T02:35:15;100163.78;;;16.55;72.91
40788;BME280;26497;52.494;7.546;2023-08-30T02:37:42;100160.41;;;16.49;73.01
40788;BME280;26497;52.494;7.546;2023-08-30T02:40:10;100171.25;;;16.43;73.27
40788;BME280;26497;52.494;7.546;2023-08-30T02:42:37;100169.50;;;16.42;73.25
40788;BME280;26497;52.494;7.546;2023-08-30T02:45:06;100166.78;;;16.44;73.02
40788;BME280;26497;52.494;7.546;2023-08-30T02:47:33;100161.31;;;16.48;72.78
40788;BME280;26497;52.494;7.546;2023-08-30T02:50:01;100156.91;;;16.47;72.53
40788;BME280;26497;52.494;7.546;2023-08-30T02:52:28;100158.88;;;16.42;72.62
40788;BME280;26497;52.494;7.546;2023-08-30T02:54:55;100156.19;;;16.42;72.70
40788;BME280;26497;52.494;7.546;2023-08-30T02:57:22;100152.81;;;16.37;72.76
40788;BME280;26497;52.494;7.546;2023-08-30T02:59:49;100148.41;;;16.36;72.85
40788;BME280;26497;52.494;7.546;2023-08-30T03:02:17;100145.59;;;16.41;72.77
40788;BME280;26497;52.494;7.546;2023-08-30T03:04:44;100146.41;;;16.43;72.90
40788;BME280;26497;52.494;7.546;2023-08-30T03:07:13;100139.63;;;16.34;72.99
40788;BME280;26497;52.494;7.546;2023-08-30T03:09:40;100142.09;;;16.39;73.01
40788;BME280;26497;52.494;7.546;2023-08-30T03:12:07;100145.78;;;16.34;73.18
40788;BME280;26497;52.494;7.546;2023-08-30T03:14:34;100135.25;;;16.31;73.29
40788;BME280;26497;52.494;7.546;2023-08-30T03:17:01;100138.16;;;16.24;73.43
40788;BME280;26497;52.494;7.546;2023-08-30T03:19:28;100138.19;;;16.22;73.25
40788;BME280;26497;52.494;7.546;2023-08-30T03:21:55;100140.56;;;16.31;72.95
40788;BME280;26497;52.494;7.546;2023-08-30T03:24:23;100130.00;;;16.30;72.81
40788;BME280;26497;52.494;7.546;2023-08-30T03:26:50;100131.88;;;16.26;73.18
40788;BME280;26497;52.494;7.546;2023-08-30T03:29:17;100125.69;;;16.26;73.37
40788;BME280;26497;52.494;7.546;2023-08-30T03:31:44;100126.59;;;16.25;73.24
40788;BME280;26497;52.494;7.546;2023-08-30T03:34:11;100122.25;;;16.22;73.33
40788;BME280;26497;52.494;7.546;2023-08-30T03:36:38;100119.34;;;16.30;73.55
40788;BME280;26497;52.494;7.546;2023-08-30T03:39:06;100129.16;;;16.28;73.97
40788;BME280;26497;52.494;7.546;2023-08-30T03:41:34;100122.88;;;16.30;74.31
40788;BME280;26497;52.494;7.546;2023-08-30T03:44:01;100123.84;;;16.28;75.22
40788;BME280;26497;52.494;7.546;2023-08-30T03:46:28;100122.34;;;16.46;74.98
40788;BME280;26497;52.494;7.546;2023-08-30T03:48:55;100121.34;;;16.50;75.06
40788;BME280;26497;52.494;7.546;2023-08-30T03:51:22;100120.09;;;16.60;74.96
40788;BME280;26497;52.494;7.546;2023-08-30T03:53:49;100118.09;;;16.67;75.30
40788;BME280;26497;52.494;7.546;2023-08-30T03:56:16;100115.00;;;16.79;74.59
40788;BME280;26497;52.494;7.546;2023-08-30T03:58:45;100110.28;;;16.88;73.99
40788;BME280;26497;52.494;7.546;2023-08-30T04:01:12;100111.09;;;16.90;74.03
40788;BME280;26497;52.494;7.546;2023-08-30T04:03:39;100105.88;;;16.87;74.11
40788;BME280;26497;52.494;7.546;2023-08-30T04:06:06;100105.00;;;16.86;73.91
40788;BME280;26497;52.494;7.546;2023-08-30T04:08:32;100096.16;;;16.86;73.62
40788;BME280;26497;52.494;7.546;2023-08-30T04:11:00;100105.16;;;16.81;73.15
40788;BME280;26497;52.494;7.546;2023-08-30T04:13:27;100100.34;;;16.68;73.10
40788;BME280;26497;52.494;7.546;2023-08-30T04:15:55;100094.22;;;16.64;73.04
40788;BME280;26497;52.494;7.546;2023-08-30T04:18:24;100097.81;;;16.63;73.16
40788;BME280;26497;52.494;7.546;2023-08-30T04:20:51;100091.91;;;16.55;72.89
40788;BME280;26497;52.494;7.546;2023-08-30T04:23:18;100095.81;;;16.44;72.83
40788;BME280;26497;52.494;7.546;2023-08-30T04:25:45;100097.97;;;16.33;72.59
40788;BME280;26497;52.494;7.546;2023-08-30T04:28:12;100097.44;;;16.21;72.63
40788;BME280;26497;52.494;7.546;2023-08-30T04:30:39;100095.03;;;16.14;72.67
40788;BME280;26497;52.494;7.546;2023-08-30T04:33:07;100089.88;;;16.09;72.44
40788;BME280;26497;52.494;7.546;2023-08-30T04:35:34;100086.63;;;15.99;72.37
40788;BME280;26497;52.494;7.546;2023-08-30T04:38:02;100082.47;;;15.90;72.38
40788;BME280;26497;52.494;7.546;2023-08-30T04:40:29;100075.56;;;15.83;72.51
40788;BME280;26497;52.494;7.546;2023-08-30T04:42:57;100072.97;;;15.82;72.43
40788;BME280;26497;52.494;7.546;2023-08-30T04:45:24;100074.81;;;15.80;72.63
40788;BME280;26497;52.494;7.546;2023-08-30T04:47:51;100074.94;;;15.75;72.70
40788;BME280;26497;52.494;7.546;2023-08-30T04:50:20;100072.28;;;15.75;73.14
40788;BME280;26497;52.494;7.546;2023-08-30T04:52:47;100077.59;;;15.75;72.93
40788;BME280;26497;52.494;7.546;2023-08-30T04:55:14;100075.94;;;15.72;73.46
40788;BME280;26497;52.494;7.546;2023-08-30T04:57:41;100075.00;;;15.73;73.95
40788;BME280;26497;52.494;7.546;2023-08-30T05:00:11;100070.34;;;15.80;73.71
40788;BME280;26497;52.494;7.546;2023-08-30T05:02:38;100065.13;;;15.77;74.36
40788;BME280;26497;52.494;7.546;2023-08-30T05:05:07;100063.03;;;15.88;74.38
40788;BME280;26497;52.494;7.546;2023-08-30T05:07:35;100059.31;;;15.94;74.13
40788;BME280;26497;52.494;7.546;2023-08-30T05:10:03;100050.38;;;15.97;73.81
40788;BME280;26497;52.494;7.546;2023-08-30T05:12:30;100042.22;;;16.01;73.64
40788;BME280;26497;52.494;7.546;2023-08-30T05:14:57;100037.88;;;15.99;73.76
40788;BME280;26497;52.494;7.546;2023-08-30T05:17:26;100042.28;;;16.00;74.06
40788;BME280;26497;52.494;7.546;2023-08-30T05:19:54;100035.84;;;16.07;74.37
40788;BME280;26497;52.494;7.546;2023-08-30T05:22:21;100041.06;;;16.10;74.92
40788;BME280;26497;52.494;7.546;2023-08-30T05:24:49;100041.72;;;16.17;75.34
40788;BME280;26497;52.494;7.546;2023-08-30T05:27:16;100037.00;;;16.25;75.47
40788;BME280;26497;52.494;7.546;2023-08-30T05:29:43;100043.63;;;16.40;75.37
40788;BME280;26497;52.494;7.546;2023-08-30T05:32:10;100040.66;;;16.48;75.40
40788;BME280;26497;52.494;7.546;2023-08-30T05:34:37;100036.13;;;16.51;75.82
40788;BME280;26497;52.494;7.546;2023-08-30T05:37:04;100031.88;;;16.46;76.74
40788;BME280;26497;52.494;7.546;2023-08-30T05:39:31;100031.25;;;16.63;76.21
40788;BME280;26497;52.494;7.546;2023-08-30T05:42:00;100030.81;;;16.75;75.83
40788;BME280;26497;52.494;7.546;2023-08-30T05:44:27;100030.56;;;16.83;75.80
40788;BME280;26497;52.494;7.546;2023-08-30T05:46:53;100027.81;;;16.85;76.12
40788;BME280;26497;52.494;7.546;2023-08-30T05:49:20;100034.19;;;16.80;76.50
40788;BME280;26497;52.494;7.546;2023-08-30T05:51:47;100031.16;;;16.91;76.27
40788;BME280;26497;52.494;7.546;2023-08-30T05:54:14;100022.09;;;16.97;76.69
40788;BME280;26497;52.494;7.546;2023-08-30T05:56:41;100015.50;;;17.07;76.30
40788;BME280;26497;52.494;7.546;2023-08-30T05:59:10;100024.28;;;17.09;76.87
40788;BME280;26497;52.494;7.546;2023-08-30T06:01:37;100024.03;;;17.17;76.81
40788;BME280;26497;52.494;7.546;2023-08-30T06:04:04;100016.34;;;17.32;76.75
40788;BME280;26497;52.494;7.546;2023-08-30T06:06:31;100019.75;;;17.35;76.96
40788;BME280;26497;52.494;7.546;2023-08-30T06:08:58;100015.94;;;17.43;77.19
40788;BME280;26497;52.494;7.546;2023-08-30T06:11:25;100023.81;;;17.46;77.45
40788;BME280;26497;52.494;7.546;2023-08-30T06:13:52;100026.03;;;17.57;77.54
40788;BME280;26497;52.494;7.546;2023-08-30T06:16:21;100019.97;;;17.53;77.69
40788;BME280;26497;52.494;7.546;2023-08-30T06:18:48;100007.69;;;17.71;77.70
40788;BME280;26497;52.494;7.546;2023-08-30T06:21:15;100008.06;;;17.84;77.36
40788;BME280;26497;52.494;7.546;2023-08-30T06:23:42;100007.50;;;17.98;77.17
40788;BME280;26497;52.494;7.546;2023-08-30T06:26:09;100002.28;;;17.95;77.25
40788;BME280;26497;52.494;7.546;2023-08-30T06:28:36;100000.25;;;18.02;76.83
40788;BME280;26497;52.494;7.546;2023-08-30T06:31:03;99992.91;;;18.07;76.74
40788;BME280;26497;52.494;7.546;2023-08-30T06:33:32;99995.72;;;18.04;75.61
40788;BME280;26497;52.494;7.546;2023-08-30T06:35:59;99996.00;;;18.18;75.93
40788;BME280;26497;52.494;7.546;2023-08-30T06:38:26;99997.00;;;18.57;76.74
40788;BME280;26497;52.494;7.546;2023-08-30T06:40:52;99989.41;;;19.08;75.31
40788;BME280;26497;52.494;7.546;2023-08-30T06:43:20;99988.66;;;19.80;74.19
40788;BME280;26497;52.494;7.546;2023-08-30T06:45:47;99986.69;;;20.02;69.08
40788;BME280;26497;52.494;7.546;2023-08-30T06:48:14;99985.09;;;20.51;68.14
40788;BME280;26497;52.494;7.546;2023-08-30T06:50:42;99978.59;;;21.23;66.08
40788;BME280;26497;52.494;7.546;2023-08-30T06:53:09;99978.78;;;21.68;59.34
40788;BME280;26497;52.494;7.546;2023-08-30T06:55:36;99981.44;;;22.14;56.27
40788;BME280;26497;52.494;7.546;2023-08-30T06:58:04;99986.34;;;22.22;54.78
40788;BME280;26497;52.494;7.546;2023-08-30T07:00:31;99984.22;;;22.87;56.74
40788;BME280;26497;52.494;7.546;2023-08-30T07:02:58;99984.34;;;23.56;50.95
40788;BME280;26497;52.494;7.546;2023-08-30T07:05:26;99980.16;;;24.33;51.29
40788;BME280;26497;52.494;7.546;2023-08-30T07:07:54;99984.41;;;24.88;48.48
40788;BME280;26497;52.494;7.546;2023-08-30T07:10:21;99982.03;;;24.84;46.01
40788;BME280;26497;52.494;7.546;2023-08-30T07:12:48;99981.25;;;24.30;46.96
40788;BME280;26497;52.494;7.546;2023-08-30T07:15:15;99975.34;;;24.90;46.95
40788;BME280;26497;52.494;7.546;2023-08-30T07:17:43;99969.59;;;25.57;43.61
40788;BME280;26497;52.494;7.546;2023-08-30T07:20:11;99967.81;;;26.52;42.60
40788;BME280;26497;52.494;7.546;2023-08-30T07:22:38;99965.34;;;27.40;40.08
40788;BME280;26497;52.494;7.546;2023-08-30T07:25:07;99965.22;;;27.86;38.50
40788;BME280;26497;52.494;7.546;2023-08-30T07:27:36;99965.44;;;28.58;38.08
40788;BME280;26497;52.494;7.546;2023-08-30T07:30:04;99965.28;;;29.11;35.94
40788;BME280;26497;52.494;7.546;2023-08-30T07:32:31;99967.66;;;28.43;35.75
40788;BME280;26497;52.494;7.546;2023-08-30T07:34:58;99969.69;;;28.08;37.00
40788;BME280;26497;52.494;7.546;2023-08-30T07:37:25;99966.59;;;27.80;37.01
40788;BME280;26497;52.494;7.546;2023-08-30T07:39:52;99958.91;;;27.96;37.57
40788;BME280;26497;52.494;7.546;2023-08-30T07:42:21;99962.66;;;28.69;35.56
40788;BME280;26497;52.494;7.546;2023-08-30T07:44:48;99955.22;;;28.71;35.69
40788;BME280;26497;52.494;7.546;2023-08-30T07:47:15;99949.59;;;29.25;34.44
40788;BME280;26497;52.494;7.546;2023-08-30T07:49:43;99952.06;;;29.38;33.98
40788;BME280;26497;52.494;7.546;2023-08-30T07:52:09;99949.97;;;29.51;34.52
40788;BME280;26497;52.494;7.546;2023-08-30T07:54:39;99944.66;;;29.89;33.64
40788;BME280;26497;52.494;7.546;2023-08-30T07:57:06;99942.94;;;30.27;32.78
40788;BME280;26497;52.494;7.546;2023-08-30T07:59:35;99938.41;;;30.08;32.24
40788;BME280;26497;52.494;7.546;2023-08-30T08:02:03;99949.84;;;29.72;32.50
40788;BME280;26497;52.494;7.546;2023-08-30T08:04:32;99939.00;;;29.12;33.59
40788;BME280;26497;52.494;7.546;2023-08-30T08:06:59;99955.22;;;28.92;34.04
40788;BME280;26497;52.494;7.546;2023-08-30T08:09:26;99949.59;;;28.53;34.37
40788;BME280;26497;52.494;7.546;2023-08-30T08:11:53;99956.63;;;28.13;35.81
40788;BME280;26497;52.494;7.546;2023-08-30T08:14:22;99952.94;;;27.26;36.73
40788;BME280;26497;52.494;7.546;2023-08-30T08:16:50;99952.22;;;26.44;38.45
40788;BME280;26497;52.494;7.546;2023-08-30T08:19:17;99953.81;;;25.75;40.10
40788;BME280;26497;52.494;7.546;2023-08-30T08:21:45;99949.13;;;25.29;41.44
40788;BME280;26497;52.494;7.546;2023-08-30T08:24:12;99948.13;;;25.06;42.21
40788;BME280;26497;52.494;7.546;2023-08-30T08:26:40;99943.00;;;24.77;42.89
40788;BME280;26497;52.494;7.546;2023-08-30T08:29:07;99945.72;;;24.51;44.33
40788;BME280;26497;52.494;7.546;2023-08-30T08:31:34;99933.19;;;24.88;44.12
40788;BME280;26497;52.494;7.546;2023-08-30T08:34:09;99941.25;;;24.63;44.37
40788;BME280;26497;52.494;7.546;2023-08-30T08:36:37;99935.06;;;23.96;46.50
40788;BME280;26497;52.494;7.546;2023-08-30T08:39:05;99943.25;;;23.67;47.59
40788;BME280;26497;52.494;7.546;2023-08-30T08:41:39;99931.38;;;23.56;48.31
40788;BME280;26497;52.494;7.546;2023-08-30T08:44:07;99935.44;;;23.49;48.23
40788;BME280;26497;52.494;7.546;2023-08-30T08:46:35;99945.97;;;23.39;49.36
40788;BME280;26497;52.494;7.546;2023-08-30T08:49:11;99936.47;;;23.34;49.87
40788;BME280;26497;52.494;7.546;2023-08-30T08:51:39;99940.75;;;22.94;51.13
40788;BME280;26497;52.494;7.546;2023-08-30T08:54:06;99943.13;;;22.99;51.15
40788;BME280;26497;52.494;7.546;2023-08-30T08:56:35;99941.63;;;23.22;50.62
40788;BME280;26497;52.494;7.546;2023-08-30T08:59:03;99943.13;;;23.55;49.85
40788;BME280;26497;52.494;7.546;2023-08-30T09:01:31;99932.63;;;24.32;48.30
40788;BME280;26497;52.494;7.546;2023-08-30T09:04:04;99932.09;;;25.28;45.86
40788;BME280;26497;52.494;7.546;2023-08-30T09:06:33;99935.06;;;25.74;44.58
40788;BME280;26497;52.494;7.546;2023-08-30T09:09:01;99940.56;;;26.08;43.32
40788;BME280;26497;52.494;7.546;2023-08-30T09:11:29;99926.19;;;26.08;42.42
40788;BME280;26497;52.494;7.546;2023-08-30T09:13:56;99940.69;;;25.46;43.12
40788;BME280;26497;52.494;7.546;2023-08-30T09:16:23;99938.22;;;25.06;44.50
40788;BME280;26497;52.494;7.546;2023-08-30T09:18:58;99937.16;;;24.83;45.00
40788;BME280;26497;52.494;7.546;2023-08-30T09:21:25;99941.41;;;24.74;44.95
40788;BME280;26497;52.494;7.546;2023-08-30T09:24:01;99938.34;;;24.40;46.04
40788;BME280;26497;52.494;7.546;2023-08-30T09:26:29;99944.91;;;24.10;46.88
40788;BME280;26497;52.494;7.546;2023-08-30T09:29:02;99940.81;;;24.17;46.59
40788;BME280;26497;52.494;7.546;2023-08-30T09:31:33;99925.66;;;23.76;47.28
40788;BME280;26497;52.494;7.546;2023-08-30T09:34:02;99933.38;;;23.67;47.20
40788;BME280;26497;52.494;7.546;2023-08-30T09:36:33;99927.28;;;23.91;47.39
40788;BME280;26497;52.494;7.546;2023-08-30T09:39:05;99932.78;;;23.90;46.73
40788;BME280;26497;52.494;7.546;2023-08-30T09:41:33;99923.59;;;24.33;46.45
40788;BME280;26497;52.494;7.546;2023-08-30T09:44:06;99911.19;;;24.04;46.53
40788;BME280;26497;52.494;7.546;2023-08-30T09:46:41;99903.78;;;24.21;46.04
40788;BME280;26497;52.494;7.546;2023-08-30T09:49:09;99898.16;;;24.24;45.60
40788;BME280;26497;52.494;7.546;2023-08-30T09:51:38;99896.72;;;24.83;45.00
40788;BME280;26497;52.494;7.546;2023-08-30T09:54:16;99897.16;;;25.51;43.26
40788;BME280;26497;52.494;7.546;2023-08-30T09:56:44;99895.91;;;25.80;41.87
40788;BME280;26497;52.494;7.546;2023-08-30T09:59:12;99898.53;;;26.04;41.17
40788;BME280;26497;52.494;7.546;2023-08-30T10:01:41;99894.47;;;26.45;40.41
40788;BME280;26497;52.494;7.546;2023-08-30T10:04:10;99895.59;;;26.43;39.71
40788;BME280;26497;52.494;7.546;2023-08-30T10:06:38;99895.25;;;26.00;40.35
40788;BME280;26497;52.494;7.546;2023-08-30T10:09:08;99895.53;;;25.73;40.83
40788;BME280;26497;52.494;7.546;2023-08-30T10:11:36;99892.81;;;25.24;41.53
40788;BME280;26497;52.494;7.546;2023-08-30T10:14:04;99898.34;;;24.59;43.60
40788;BME280;26497;52.494;7.546;2023-08-30T10:16:37;99892.47;;;24.41;44.41
40788;BME280;26497;52.494;7.546;2023-08-30T10:19:11;99892.00;;;24.61;44.57
40788;BME280;26497;52.494;7.546;2023-08-30T10:21:41;99890.41;;;24.19;45.97
40788;BME280;26497;52.494;7.546;2023-08-30T10:24:14;99887.63;;;23.80;47.82
40788;BME280;26497;52.494;7.546;2023-08-30T10:26:44;99892.41;;;23.49;49.96
40788;BME280;26497;52.494;7.546;2023-08-30T10:29:13;99898.69;;;23.08;52.14
40788;BME280;26497;52.494;7.546;2023-08-30T10:31:41;99890.47;;;22.82;53.99
40788;BME280;26497;52.494;7.546;2023-08-30T10:34:14;99888.19;;;22.47;56.74
40788;BME280;26497;52.494;7.546;2023-08-30T10:36:43;99883.91;;;22.14;58.74
40788;BME280;26497;52.494;7.546;2023-08-30T10:39:15;99887.00;;;21.77;60.57
40788;BME280;26497;52.494;7.546;2023-08-30T10:41:55;99882.91;;;21.39;62.92
40788;BME280;26497;52.494;7.546;2023-08-30T10:44:23;99878.16;;;21.44;62.95
40788;BME280;26497;52.494;7.546;2023-08-30T10:46:53;99873.81;;;21.42;63.91
40788;BME280;26497;52.494;7.546;2023-08-30T10:49:21;99872.31;;;21.52;63.77
40788;BME280;26497;52.494;7.546;2023-08-30T10:51:56;99868.06;;;21.94;64.02
40788;BME280;26497;52.494;7.546;2023-08-30T10:54:25;99869.81;;;22.10;63.50
40788;BME280;26497;52.494;7.546;2023-08-30T10:57:03;99861.34;;;21.87;61.99
40788;BME280;26497;52.494;7.546;2023-08-30T10:59:30;99860.38;;;21.88;62.83
40788;BME280;26497;52.494;7.546;2023-08-30T11:02:01;99857.59;;;21.75;62.55
40788;BME280;26497;52.494;7.546;2023-08-30T11:04:29;99855.88;;;21.74;63.26
40788;BME280;26497;52.494;7.546;2023-08-30T11:06:56;99847.03;;;21.87;63.61
40788;BME280;26497;52.494;7.546;2023-08-30T11:09:25;99844.84;;;21.79;65.07
40788;BME280;26497;52.494;7.546;2023-08-30T11:11:52;99848.78;;;21.57;65.60
40788;BME280;26497;52.494;7.546;2023-08-30T11:14:19;99846.63;;;21.17;67.53
40788;BME280;26497;52.494;7.546;2023-08-30T11:16:46;99841.19;;;21.03;69.11
40788;BME280;26497;52.494;7.546;2023-08-30T11:19:13;99845.63;;;20.88;70.32
40788;BME280;26497;52.494;7.546;2023-08-30T11:21:44;99852.00;;;21.01;70.42
40788;BME280;26497;52.494;7.546;2023-08-30T11:24:11;99846.81;;;20.82;71.67
40788;BME280;26497;52.494;7.546;2023-08-30T11:26:40;99850.31;;;20.67;71.68
40788;BME280;26497;52.494;7.546;2023-08-30T11:29:08;99850.25;;;20.52;71.75
40788;BME280;26497;52.494;7.546;2023-08-30T11:34:02;99851.19;;;20.51;72.75
40788;BME280;26497;52.494;7.546;2023-08-30T11:36:31;99859.00;;;20.38;73.44
40788;BME280;26497;52.494;7.546;2023-08-30T11:38:58;99862.34;;;20.26;74.88
40788;BME280;26497;52.494;7.546;2023-08-30T11:41:26;99854.09;;;20.30;75.33
40788;BME280;26497;52.494;7.546;2023-08-30T11:43:54;99845.25;;;20.28;76.33
40788;BME280;26497;52.494;7.546;2023-08-30T11:46:21;99847.28;;;20.73;75.78
40788;BME280;26497;52.494;7.546;2023-08-30T11:48:51;99829.09;;;20.96;74.69
40788;BME280;26497;52.494;7.546;2023-08-30T11:51:18;99835.66;;;21.06;74.89
40788;BME280;26497;52.494;7.546;2023-08-30T11:53:46;99829.09;;;20.96;74.45
40788;BME280;26497;52.494;7.546;2023-08-30T11:56:14;99822.78;;;21.13;74.47
40788;BME280;26497;52.494;7.546;2023-08-30T11:58:42;99827.00;;;21.17;73.74
40788;BME280;26497;52.494;7.546;2023-08-30T12:01:11;99829.69;;;21.01;73.67
40788;BME280;26497;52.494;7.546;2023-08-30T12:03:39;99819.81;;;20.69;74.44
40788;BME280;26497;52.494;7.546;2023-08-30T12:06:10;99827.59;;;20.42;76.08
40788;BME280;26497;52.494;7.546;2023-08-30T12:08:37;99830.50;;;20.03;76.82
40788;BME280;26497;52.494;7.546;2023-08-30T12:11:05;99832.56;;;19.63;78.54
40788;BME280;26497;52.494;7.546;2023-08-30T12:13:33;99833.03;;;19.71;79.84
40788;BME280;26497;52.494;7.546;2023-08-30T12:16:01;99838.09;;;19.95;78.94
40788;BME280;26497;52.494;7.546;2023-08-30T12:18:32;99835.31;;;19.79;79.59
40788;BME280;26497;52.494;7.546;2023-08-30T12:21:01;99835.00;;;19.68;78.93
40788;BME280;26497;52.494;7.546;2023-08-30T12:23:30;99828.31;;;19.77;78.53
40788;BME280;26497;52.494;7.546;2023-08-30T12:25:59;99826.06;;;19.69;78.65
40788;BME280;26497;52.494;7.546;2023-08-30T12:28:27;99831.75;;;19.26;81.18
40788;BME280;26497;52.494;7.546;2023-08-30T12:30:55;99822.47;;;19.15;81.53
40788;BME280;26497;52.494;7.546;2023-08-30T12:33:22;99828.22;;;19.25;81.42
40788;BME280;26497;52.494;7.546;2023-08-30T12:35:52;99818.06;;;19.32;81.58
40788;BME280;26497;52.494;7.546;2023-08-30T12:38:19;99821.97;;;19.44;81.13
40788;BME280;26497;52.494;7.546;2023-08-30T12:40:49;99814.47;;;19.33;81.71
40788;BME280;26497;52.494;7.546;2023-08-30T12:43:24;99815.50;;;19.30;82.11
40788;BME280;26497;52.494;7.546;2023-08-30T12:45:51;99816.34;;;19.31;82.67
40788;BME280;26497;52.494;7.546;2023-08-30T12:48:18;99813.19;;;19.23;82.47
40788;BME280;26497;52.494;7.546;2023-08-30T12:50:47;99817.06;;;19.35;81.89
40788;BME280;26497;52.494;7.546;2023-08-30T12:53:16;99810.38;;;19.26;82.05
40788;BME280;26497;52.494;7.546;2023-08-30T12:55:43;99812.44;;;19.21;83.01
40788;BME280;26497;52.494;7.546;2023-08-30T12:58:10;99811.94;;;19.30;82.83
40788;BME280;26497;52.494;7.546;2023-08-30T13:00:40;99814.88;;;19.25;83.10
40788;BME280;26497;52.494;7.546;2023-08-30T13:03:07;99811.25;;;19.44;83.64